This is the latest recevied weather packets stored in our database for station/object HARMALA. If no packets are shown the sender has not sent any weather packets the latest 10 day(s).
| Time | Temp. | Humidity | Pressure | Rain* | Wind** | Luminosity | Snow |
|---|---|---|---|---|---|---|---|
| 1777700823 | 11.67° C | 59% | 1009.4 hPa | 0 mm | - | - | - |
| 1777699623 | 10.56° C | 62% | 1009.4 hPa | 0 mm | - | - | - |
| 1777698423 | 9.44° C | 65% | 1009.6 hPa | 0 mm | - | - | - |
| 1777697223 | 8.89° C | 68% | 1009.8 hPa | 0 mm | - | - | - |
| 1777696023 | 8.33° C | 72% | 1009.9 hPa | 0 mm | - | - | - |
| 1777694823 | 7.78° C | 76% | 1010.1 hPa | 0 mm | - | - | - |
| 1777693623 | 5.56° C | 79% | 1010.5 hPa | 0 mm | - | - | - |
| 1777692422 | 2.78° C | 90% | 1010.8 hPa | 0 mm | - | - | - |
| 1777691223 | 2.22° C | 91% | 1010.9 hPa | 0 mm | - | - | - |
| 1777690023 | 2.22° C | 90% | 1010.9 hPa | 0 mm | - | - | - |
| 1777688823 | 2.22° C | 88% | 1011.2 hPa | 0 mm | - | - | - |
| 1777673222 | 5° C | 76% | 1013.6 hPa | 0 mm | - | - | - |
| 1777672022 | 5.56° C | 75% | 1013.8 hPa | 0 mm | - | - | - |
| 1777670821 | 6.11° C | 74% | 1014.1 hPa | 0 mm | - | - | - |
| 1777669621 | 6.67° C | 70% | 1014.3 hPa | 0 mm | - | - | - |
| 1777667222 | 8.33° C | 66% | 1014.3 hPa | 0 mm | - | - | - |
| 1777666021 | 8.89° C | 61% | 1014.4 hPa | 0 mm | - | - | - |
| 1777663621 | 10.56° C | 56% | 1014.6 hPa | 0 mm | - | - | - |
| 1777660021 | 15.56° C | 43% | 1014.6 hPa | 0 mm | - | - | - |
| 1777658821 | 16.67° C | 38% | 1014.5 hPa | 0 mm | - | - | - |
| 1777656421 | 18.33° C | 28% | 1014.4 hPa | 0 mm | - | - | - |
| 1777655221 | 18.89° C | 28% | 1014.5 hPa | 0 mm | - | - | - |
| 1777652820 | 19.44° C | 28% | 1014.8 hPa | 0 mm | - | - | - |
| 1777651621 | 20° C | 27% | 1015 hPa | 0 mm | - | - | - |
| 1777650421 | 20° C | 27% | 1015 hPa | 0 mm | - | - | - |
* Rain latest hour (hover to see other rain measurements)
** Current wind speed in m/s (hover to see current wind gust speed)